Decoded Metar for CYQX (GANDER in NL, CANADA) (IATA:YQX) | Meteo·Mobile Aviation Weather
aviador You're here:

CYQX Decoded Metar

GANDER in NL, CANADA
Report Time2019-05-19 23:00:00
UTC Time2019-05-19 23:16:52
Flight Rules ifr IFR
Wind330° at 21 Gusting to 33 kt
W.Decomp.*RWY 03: 16.5 kt HW 12.9 kt LCW
RWY 31: 15.6 kt HW 14.1 kt RCW
Visibility9656 m
Phenomena:Light Rain
Mist
Clouds:Broken 005 Hf
Overcast 010 Hf
Ceiling500 ft
Temp02°C (ISA -12)
Dew Point02°C (100% RH)
AAT-7.2°C
QNH1008 hPa
Density Alt-696 ft
Elevation495 ft
Report Wrong Elevation
Raw Report
CYQX 192300Z 33021G33KT 6SM -RA BR BKN005 OVC010 02/02 A2978 RMK
SF6SC2 SLP092=

Extra information for CYQX:More info

Metar Taf Metar & Taf Last 4 Metars F.Rules Stats Wind Profile Meteogram Temp Stats Airport Information Weather charts Add Link Nearby VenuesMetar ALERT Operation Metar Decoded Social comments